sensor_id;sensor_type;location;lat;lon;timestamp;pressure;altitude;pressure_sealevel;temperature
69545;BMP180;56766;52.260;20.746;2023-04-29T00:00:45;100427.40;;;5.50
69545;BMP180;56766;52.260;20.746;2023-04-29T00:03:17;100423.80;;;5.50
69545;BMP180;56766;52.260;20.746;2023-04-29T00:05:45;100425.20;;;5.50
69545;BMP180;56766;52.260;20.746;2023-04-29T00:08:11;100417.20;;;5.50
69545;BMP180;56766;52.260;20.746;2023-04-29T00:10:39;100418.80;;;5.50
69545;BMP180;56766;52.260;20.746;2023-04-29T00:13:05;100422.00;;;5.50
69545;BMP180;56766;52.260;20.746;2023-04-29T00:15:32;100418.00;;;5.50
69545;BMP180;56766;52.260;20.746;2023-04-29T00:17:58;100416.00;;;5.50
69545;BMP180;56766;52.260;20.746;2023-04-29T00:20:24;100413.80;;;5.50
69545;BMP180;56766;52.260;20.746;2023-04-29T00:22:51;100414.20;;;5.60
69545;BMP180;56766;52.260;20.746;2023-04-29T00:25:17;100409.40;;;5.60
69545;BMP180;56766;52.260;20.746;2023-04-29T00:27:43;100411.40;;;5.60
69545;BMP180;56766;52.260;20.746;2023-04-29T00:30:10;100405.40;;;5.68
69545;BMP180;56766;52.260;20.746;2023-04-29T00:32:36;100405.80;;;5.70
69545;BMP180;56766;52.260;20.746;2023-04-29T00:35:02;100401.40;;;5.70
69545;BMP180;56766;52.260;20.746;2023-04-29T00:37:28;100404.60;;;5.74
69545;BMP180;56766;52.260;20.746;2023-04-29T00:39:54;100403.40;;;5.80
69545;BMP180;56766;52.260;20.746;2023-04-29T00:42:21;100400.20;;;5.80
69545;BMP180;56766;52.260;20.746;2023-04-29T00:44:47;100399.80;;;5.80
69545;BMP180;56766;52.260;20.746;2023-04-29T00:47:13;100394.80;;;5.80
69545;BMP180;56766;52.260;20.746;2023-04-29T00:49:40;100397.40;;;5.80
69545;BMP180;56766;52.260;20.746;2023-04-29T00:52:06;100388.60;;;5.80
69545;BMP180;56766;52.260;20.746;2023-04-29T00:54:46;100387.20;;;5.80
69545;BMP180;56766;52.260;20.746;2023-04-29T00:57:14;100386.60;;;5.80
69545;BMP180;56766;52.260;20.746;2023-04-29T00:59:40;100391.00;;;5.80
69545;BMP180;56766;52.260;20.746;2023-04-29T01:02:17;100389.00;;;5.80
69545;BMP180;56766;52.260;20.746;2023-04-29T01:05:01;100386.80;;;5.80
69545;BMP180;56766;52.260;20.746;2023-04-29T01:10:40;100385.20;;;5.80
69545;BMP180;56766;52.260;20.746;2023-04-29T01:13:58;100388.80;;;5.80
69545;BMP180;56766;52.260;20.746;2023-04-29T01:16:58;100386.20;;;5.80
69545;BMP180;56766;52.260;20.746;2023-04-29T01:19:38;100389.20;;;5.86
69545;BMP180;56766;52.260;20.746;2023-04-29T01:22:08;100387.60;;;5.86
69545;BMP180;56766;52.260;20.746;2023-04-29T01:24:34;100387.20;;;5.86
69545;BMP180;56766;52.260;20.746;2023-04-29T01:27:45;100387.00;;;5.88
69545;BMP180;56766;52.260;20.746;2023-04-29T01:34:32;100387.80;;;5.90
69545;BMP180;56766;52.260;20.746;2023-04-29T01:37:24;100385.60;;;5.90
69545;BMP180;56766;52.260;20.746;2023-04-29T01:40:18;100386.00;;;5.90
69545;BMP180;56766;52.260;20.746;2023-04-29T01:42:59;100380.40;;;5.90
69545;BMP180;56766;52.260;20.746;2023-04-29T01:45:33;100382.40;;;5.90
69545;BMP180;56766;52.260;20.746;2023-04-29T01:48:23;100380.40;;;5.90
69545;BMP180;56766;52.260;20.746;2023-04-29T01:50:49;100379.00;;;5.90
69545;BMP180;56766;52.260;20.746;2023-04-29T01:53:21;100381.60;;;5.90
69545;BMP180;56766;52.260;20.746;2023-04-29T01:55:52;100385.20;;;5.90
69545;BMP180;56766;52.260;20.746;2023-04-29T01:58:19;100384.40;;;5.90
69545;BMP180;56766;52.260;20.746;2023-04-29T02:01:05;100381.40;;;5.90
69545;BMP180;56766;52.260;20.746;2023-04-29T02:03:31;100384.00;;;5.90
69545;BMP180;56766;52.260;20.746;2023-04-29T02:05:57;100387.20;;;5.90
69545;BMP180;56766;52.260;20.746;2023-04-29T02:08:24;100384.00;;;5.90
69545;BMP180;56766;52.260;20.746;2023-04-29T02:10:56;100384.40;;;5.90
69545;BMP180;56766;52.260;20.746;2023-04-29T02:13:35;100382.00;;;5.90
69545;BMP180;56766;52.260;20.746;2023-04-29T02:16:28;100381.40;;;5.90
69545;BMP180;56766;52.260;20.746;2023-04-29T02:18:57;100384.80;;;5.90
69545;BMP180;56766;52.260;20.746;2023-04-29T02:21:24;100384.00;;;5.90
69545;BMP180;56766;52.260;20.746;2023-04-29T02:24:12;100383.40;;;5.90
69545;BMP180;56766;52.260;20.746;2023-04-29T02:26:44;100381.60;;;5.90
69545;BMP180;56766;52.260;20.746;2023-04-29T02:29:12;100374.80;;;5.90
69545;BMP180;56766;52.260;20.746;2023-04-29T02:31:39;100374.20;;;5.90
69545;BMP180;56766;52.260;20.746;2023-04-29T02:34:05;100374.40;;;5.88
69545;BMP180;56766;52.260;20.746;2023-04-29T02:36:31;100375.40;;;5.88
69545;BMP180;56766;52.260;20.746;2023-04-29T02:38:58;100369.60;;;5.86
69545;BMP180;56766;52.260;20.746;2023-04-29T02:41:26;100363.00;;;5.84
69545;BMP180;56766;52.260;20.746;2023-04-29T02:43:54;100365.60;;;5.82
69545;BMP180;56766;52.260;20.746;2023-04-29T02:46:21;100360.40;;;5.80
69545;BMP180;56766;52.260;20.746;2023-04-29T02:48:48;100363.80;;;5.80
69545;BMP180;56766;52.260;20.746;2023-04-29T02:51:32;100360.60;;;5.80
69545;BMP180;56766;52.260;20.746;2023-04-29T02:54:01;100362.20;;;5.82
69545;BMP180;56766;52.260;20.746;2023-04-29T02:56:56;100359.40;;;5.88
69545;BMP180;56766;52.260;20.746;2023-04-29T02:59:43;100362.60;;;5.90
69545;BMP180;56766;52.260;20.746;2023-04-29T03:02:10;100352.60;;;5.88
69545;BMP180;56766;52.260;20.746;2023-04-29T03:04:39;100352.80;;;5.90
69545;BMP180;56766;52.260;20.746;2023-04-29T03:07:11;100354.80;;;5.90
69545;BMP180;56766;52.260;20.746;2023-04-29T03:09:47;100352.80;;;5.90
69545;BMP180;56766;52.260;20.746;2023-04-29T03:12:13;100353.60;;;5.90
69545;BMP180;56766;52.260;20.746;2023-04-29T03:14:50;100357.00;;;5.90
69545;BMP180;56766;52.260;20.746;2023-04-29T03:17:37;100355.40;;;5.90
69545;BMP180;56766;52.260;20.746;2023-04-29T03:20:05;100356.20;;;5.90
69545;BMP180;56766;52.260;20.746;2023-04-29T03:22:32;100353.40;;;5.90
69545;BMP180;56766;52.260;20.746;2023-04-29T03:25:00;100350.40;;;5.90
69545;BMP180;56766;52.260;20.746;2023-04-29T03:27:30;100349.60;;;5.90
69545;BMP180;56766;52.260;20.746;2023-04-29T03:29:56;100351.40;;;5.90
69545;BMP180;56766;52.260;20.746;2023-04-29T03:32:22;100353.60;;;5.92
69545;BMP180;56766;52.260;20.746;2023-04-29T03:34:51;100350.20;;;6.00
69545;BMP180;56766;52.260;20.746;2023-04-29T03:37:17;100356.20;;;6.00
69545;BMP180;56766;52.260;20.746;2023-04-29T03:39:44;100355.80;;;6.00
69545;BMP180;56766;52.260;20.746;2023-04-29T03:42:27;100357.20;;;6.00
69545;BMP180;56766;52.260;20.746;2023-04-29T03:44:58;100355.40;;;6.00
69545;BMP180;56766;52.260;20.746;2023-04-29T03:47:25;100355.00;;;6.00
69545;BMP180;56766;52.260;20.746;2023-04-29T03:49:51;100351.20;;;6.10
69545;BMP180;56766;52.260;20.746;2023-04-29T03:52:18;100355.60;;;6.10
69545;BMP180;56766;52.260;20.746;2023-04-29T03:54:44;100357.00;;;6.16
69545;BMP180;56766;52.260;20.746;2023-04-29T03:57:11;100352.20;;;6.20
69545;BMP180;56766;52.260;20.746;2023-04-29T03:59:37;100356.20;;;6.30
69545;BMP180;56766;52.260;20.746;2023-04-29T04:02:09;100352.80;;;6.30
69545;BMP180;56766;52.260;20.746;2023-04-29T04:04:37;100358.00;;;6.40
69545;BMP180;56766;52.260;20.746;2023-04-29T04:07:03;100347.00;;;6.50
69545;BMP180;56766;52.260;20.746;2023-04-29T04:09:31;100350.00;;;6.60
69545;BMP180;56766;52.260;20.746;2023-04-29T04:12:01;100349.20;;;6.70
69545;BMP180;56766;52.260;20.746;2023-04-29T04:14:29;100347.40;;;6.80
69545;BMP180;56766;52.260;20.746;2023-04-29T04:16:56;100348.00;;;6.90
69545;BMP180;56766;52.260;20.746;2023-04-29T04:19:22;100342.00;;;7.00
69545;BMP180;56766;52.260;20.746;2023-04-29T04:22:03;100337.40;;;7.10
69545;BMP180;56766;52.260;20.746;2023-04-29T04:24:29;100335.40;;;7.20
69545;BMP180;56766;52.260;20.746;2023-04-29T04:26:56;100337.40;;;7.30
69545;BMP180;56766;52.260;20.746;2023-04-29T04:29:22;100328.20;;;7.40
69545;BMP180;56766;52.260;20.746;2023-04-29T04:31:49;100328.00;;;7.46
69545;BMP180;56766;52.260;20.746;2023-04-29T04:34:17;100325.80;;;7.54
69545;BMP180;56766;52.260;20.746;2023-04-29T04:36:44;100323.80;;;7.60
69545;BMP180;56766;52.260;20.746;2023-04-29T04:39:14;100323.00;;;7.70
69545;BMP180;56766;52.260;20.746;2023-04-29T04:41:46;100325.20;;;7.76
69545;BMP180;56766;52.260;20.746;2023-04-29T04:44:14;100323.20;;;7.80
69545;BMP180;56766;52.260;20.746;2023-04-29T04:46:41;100325.00;;;7.90
69545;BMP180;56766;52.260;20.746;2023-04-29T04:49:08;100320.20;;;7.96
69545;BMP180;56766;52.260;20.746;2023-04-29T04:51:34;100326.60;;;8.00
69545;BMP180;56766;52.260;20.746;2023-04-29T04:54:02;100321.00;;;8.10
69545;BMP180;56766;52.260;20.746;2023-04-29T04:56:33;100329.00;;;8.10
69545;BMP180;56766;52.260;20.746;2023-04-29T04:59:05;100333.40;;;8.20
69545;BMP180;56766;52.260;20.746;2023-04-29T05:01:43;100343.40;;;8.26
69545;BMP180;56766;52.260;20.746;2023-04-29T05:04:10;100344.60;;;8.38
69545;BMP180;56766;52.260;20.746;2023-04-29T05:06:36;100344.80;;;8.40
69545;BMP180;56766;52.260;20.746;2023-04-29T05:09:03;100334.80;;;8.50
69545;BMP180;56766;52.260;20.746;2023-04-29T05:11:30;100331.60;;;8.50
69545;BMP180;56766;52.260;20.746;2023-04-29T05:13:59;100335.80;;;8.56
69545;BMP180;56766;52.260;20.746;2023-04-29T05:16:31;100349.40;;;8.70
69545;BMP180;56766;52.260;20.746;2023-04-29T05:18:58;100347.00;;;8.84
69545;BMP180;56766;52.260;20.746;2023-04-29T05:21:27;100337.80;;;9.00
69545;BMP180;56766;52.260;20.746;2023-04-29T05:23:53;100333.00;;;9.10
69545;BMP180;56766;52.260;20.746;2023-04-29T05:26:31;100332.80;;;9.30
69545;BMP180;56766;52.260;20.746;2023-04-29T05:29:03;100336.00;;;9.50
69545;BMP180;56766;52.260;20.746;2023-04-29T05:31:32;100332.60;;;9.70
69545;BMP180;56766;52.260;20.746;2023-04-29T05:34:00;100329.00;;;9.80
69545;BMP180;56766;52.260;20.746;2023-04-29T05:36:27;100327.40;;;10.00
69545;BMP180;56766;52.260;20.746;2023-04-29T05:38:55;100321.00;;;10.10
69545;BMP180;56766;52.260;20.746;2023-04-29T05:41:21;100325.40;;;10.30
69545;BMP180;56766;52.260;20.746;2023-04-29T05:43:50;100322.40;;;10.50
69545;BMP180;56766;52.260;20.746;2023-04-29T05:46:18;100327.20;;;10.70
69545;BMP180;56766;52.260;20.746;2023-04-29T05:48:47;100327.60;;;10.90
69545;BMP180;56766;52.260;20.746;2023-04-29T05:51:13;100325.60;;;11.10
69545;BMP180;56766;52.260;20.746;2023-04-29T05:53:40;100323.00;;;11.20
69545;BMP180;56766;52.260;20.746;2023-04-29T05:56:09;100316.00;;;11.30
69545;BMP180;56766;52.260;20.746;2023-04-29T05:58:38;100320.40;;;11.40
69545;BMP180;56766;52.260;20.746;2023-04-29T06:01:05;100319.60;;;11.40
69545;BMP180;56766;52.260;20.746;2023-04-29T06:03:33;100314.00;;;11.40
69545;BMP180;56766;52.260;20.746;2023-04-29T06:06:02;100316.80;;;11.30
69545;BMP180;56766;52.260;20.746;2023-04-29T06:08:31;100315.20;;;11.30
69545;BMP180;56766;52.260;20.746;2023-04-29T06:11:00;100312.40;;;11.40
69545;BMP180;56766;52.260;20.746;2023-04-29T06:13:28;100312.80;;;11.50
69545;BMP180;56766;52.260;20.746;2023-04-29T06:15:56;100312.00;;;11.70
69545;BMP180;56766;52.260;20.746;2023-04-29T06:18:22;100316.00;;;11.82
69545;BMP180;56766;52.260;20.746;2023-04-29T06:20:53;100311.60;;;12.00
69545;BMP180;56766;52.260;20.746;2023-04-29T06:23:25;100306.60;;;12.20
69545;BMP180;56766;52.260;20.746;2023-04-29T06:25:52;100302.20;;;12.40
69545;BMP180;56766;52.260;20.746;2023-04-29T06:28:18;100302.40;;;12.54
69545;BMP180;56766;52.260;20.746;2023-04-29T06:30:55;100302.00;;;12.70
69545;BMP180;56766;52.260;20.746;2023-04-29T06:33:21;100306.60;;;12.84
69545;BMP180;56766;52.260;20.746;2023-04-29T06:35:48;100309.00;;;12.96
69545;BMP180;56766;52.260;20.746;2023-04-29T06:38:16;100307.00;;;12.90
69545;BMP180;56766;52.260;20.746;2023-04-29T06:40:42;100309.20;;;12.90
69545;BMP180;56766;52.260;20.746;2023-04-29T06:43:11;100308.20;;;12.90
69545;BMP180;56766;52.260;20.746;2023-04-29T06:45:39;100300.20;;;12.90
69545;BMP180;56766;52.260;20.746;2023-04-29T06:48:09;100304.00;;;12.80
69545;BMP180;56766;52.260;20.746;2023-04-29T06:50:37;100298.40;;;12.80
69545;BMP180;56766;52.260;20.746;2023-04-29T06:53:04;100303.60;;;12.90
69545;BMP180;56766;52.260;20.746;2023-04-29T06:55:34;100304.80;;;13.00
69545;BMP180;56766;52.260;20.746;2023-04-29T06:58:01;100302.20;;;13.14
69545;BMP180;56766;52.260;20.746;2023-04-29T07:00:29;100301.60;;;13.30
69545;BMP180;56766;52.260;20.746;2023-04-29T07:02:55;100301.40;;;13.42
69545;BMP180;56766;52.260;20.746;2023-04-29T07:05:24;100299.60;;;13.60
69545;BMP180;56766;52.260;20.746;2023-04-29T07:07:50;100294.00;;;13.70
69545;BMP180;56766;52.260;20.746;2023-04-29T07:10:16;100296.60;;;13.80
69545;BMP180;56766;52.260;20.746;2023-04-29T07:12:43;100294.40;;;13.88
69545;BMP180;56766;52.260;20.746;2023-04-29T07:15:13;100293.20;;;13.90
69545;BMP180;56766;52.260;20.746;2023-04-29T07:17:39;100293.40;;;14.00
69545;BMP180;56766;52.260;20.746;2023-04-29T07:20:07;100290.00;;;14.10
69545;BMP180;56766;52.260;20.746;2023-04-29T07:22:34;100291.80;;;14.20
69545;BMP180;56766;52.260;20.746;2023-04-29T07:25:03;100291.60;;;14.30
69545;BMP180;56766;52.260;20.746;2023-04-29T07:27:33;100290.80;;;14.48
69545;BMP180;56766;52.260;20.746;2023-04-29T07:30:03;100289.40;;;14.60
69545;BMP180;56766;52.260;20.746;2023-04-29T07:32:29;100289.20;;;14.66
69545;BMP180;56766;52.260;20.746;2023-04-29T07:34:59;100290.40;;;14.72
69545;BMP180;56766;52.260;20.746;2023-04-29T07:37:29;100288.80;;;14.90
69545;BMP180;56766;52.260;20.746;2023-04-29T07:39:56;100291.00;;;15.00
69545;BMP180;56766;52.260;20.746;2023-04-29T07:42:23;100284.20;;;15.20
69545;BMP180;56766;52.260;20.746;2023-04-29T07:44:52;100282.00;;;15.30
69545;BMP180;56766;52.260;20.746;2023-04-29T07:47:18;100288.40;;;15.56
69545;BMP180;56766;52.260;20.746;2023-04-29T07:49:44;100285.80;;;15.74
69545;BMP180;56766;52.260;20.746;2023-04-29T07:52:12;100287.40;;;15.90
69545;BMP180;56766;52.260;20.746;2023-04-29T07:54:38;100283.00;;;16.10
69545;BMP180;56766;52.260;20.746;2023-04-29T07:57:04;100289.80;;;16.30
69545;BMP180;56766;52.260;20.746;2023-04-29T07:59:31;100287.60;;;16.42
69545;BMP180;56766;52.260;20.746;2023-04-29T08:01:58;100287.60;;;16.60
69545;BMP180;56766;52.260;20.746;2023-04-29T08:04:24;100285.60;;;16.70
69545;BMP180;56766;52.260;20.746;2023-04-29T08:06:51;100289.20;;;16.80
69545;BMP180;56766;52.260;20.746;2023-04-29T08:09:17;100287.20;;;16.90
69545;BMP180;56766;52.260;20.746;2023-04-29T08:11:44;100287.60;;;17.00
69545;BMP180;56766;52.260;20.746;2023-04-29T08:14:11;100286.00;;;17.10
69545;BMP180;56766;52.260;20.746;2023-04-29T08:16:37;100291.40;;;17.10
69545;BMP180;56766;52.260;20.746;2023-04-29T08:19:04;100285.80;;;17.10
69545;BMP180;56766;52.260;20.746;2023-04-29T08:21:30;100289.00;;;17.20
69545;BMP180;56766;52.260;20.746;2023-04-29T08:23:58;100285.00;;;17.26
69545;BMP180;56766;52.260;20.746;2023-04-29T08:26:26;100284.60;;;17.20
69545;BMP180;56766;52.260;20.746;2023-04-29T08:28:52;100283.40;;;17.20
69545;BMP180;56766;52.260;20.746;2023-04-29T08:31:20;100283.80;;;17.30
69545;BMP180;56766;52.260;20.746;2023-04-29T08:33:48;100278.20;;;17.50
69545;BMP180;56766;52.260;20.746;2023-04-29T08:36:14;100276.40;;;17.68
69545;BMP180;56766;52.260;20.746;2023-04-29T08:38:40;100277.40;;;17.70
69545;BMP180;56766;52.260;20.746;2023-04-29T08:41:07;100276.20;;;17.80
69545;BMP180;56766;52.260;20.746;2023-04-29T08:43:38;100266.80;;;18.00
69545;BMP180;56766;52.260;20.746;2023-04-29T08:46:09;100261.00;;;18.00
69545;BMP180;56766;52.260;20.746;2023-04-29T08:48:37;100257.80;;;18.10
69545;BMP180;56766;52.260;20.746;2023-04-29T08:51:05;100259.40;;;18.10
69545;BMP180;56766;52.260;20.746;2023-04-29T08:53:31;100257.80;;;17.94
69545;BMP180;56766;52.260;20.746;2023-04-29T08:56:08;100260.20;;;17.86
69545;BMP180;56766;52.260;20.746;2023-04-29T08:58:41;100255.20;;;17.74
69545;BMP180;56766;52.260;20.746;2023-04-29T09:01:09;100252.20;;;17.60
69545;BMP180;56766;52.260;20.746;2023-04-29T09:06:30;100256.40;;;17.60
69545;BMP180;56766;52.260;20.746;2023-04-29T09:08:59;100259.20;;;17.60
69545;BMP180;56766;52.260;20.746;2023-04-29T09:11:29;100254.80;;;17.70
69545;BMP180;56766;52.260;20.746;2023-04-29T09:14:00;100254.60;;;17.80
69545;BMP180;56766;52.260;20.746;2023-04-29T09:16:30;100257.00;;;17.94
69545;BMP180;56766;52.260;20.746;2023-04-29T09:18:56;100257.20;;;18.28
69545;BMP180;56766;52.260;20.746;2023-04-29T09:21:31;100254.60;;;18.62
69545;BMP180;56766;52.260;20.746;2023-04-29T09:24:01;100254.80;;;18.90
69545;BMP180;56766;52.260;20.746;2023-04-29T09:26:42;100254.00;;;19.10
69545;BMP180;56766;52.260;20.746;2023-04-29T09:29:13;100256.20;;;18.96
69545;BMP180;56766;52.260;20.746;2023-04-29T09:31:41;100256.60;;;18.70
69545;BMP180;56766;52.260;20.746;2023-04-29T09:34:08;100256.80;;;18.60
69545;BMP180;56766;52.260;20.746;2023-04-29T09:36:44;100255.80;;;18.50
69545;BMP180;56766;52.260;20.746;2023-04-29T09:39:21;100255.60;;;18.50
69545;BMP180;56766;52.260;20.746;2023-04-29T09:44:24;100248.00;;;18.60
69545;BMP180;56766;52.260;20.746;2023-04-29T09:47:07;100254.40;;;18.80
69545;BMP180;56766;52.260;20.746;2023-04-29T09:49:39;100247.80;;;19.04
69545;BMP180;56766;52.260;20.746;2023-04-29T09:52:12;100250.40;;;19.20
69545;BMP180;56766;52.260;20.746;2023-04-29T09:54:42;100247.80;;;19.00
69545;BMP180;56766;52.260;20.746;2023-04-29T09:57:11;100244.40;;;18.88
69545;BMP180;56766;52.260;20.746;2023-04-29T09:59:40;100238.40;;;18.90
69545;BMP180;56766;52.260;20.746;2023-04-29T10:02:18;100233.20;;;19.00
69545;BMP180;56766;52.260;20.746;2023-04-29T10:04:53;100237.80;;;19.10
69545;BMP180;56766;52.260;20.746;2023-04-29T10:07:22;100231.20;;;19.20
69545;BMP180;56766;52.260;20.746;2023-04-29T10:09:53;100230.20;;;19.30
69545;BMP180;56766;52.260;20.746;2023-04-29T10:12:21;100226.00;;;19.36
69545;BMP180;56766;52.260;20.746;2023-04-29T10:15:04;100224.20;;;19.42
69545;BMP180;56766;52.260;20.746;2023-04-29T10:20:49;100221.20;;;19.66
69545;BMP180;56766;52.260;20.746;2023-04-29T10:23:19;100217.00;;;19.80
69545;BMP180;56766;52.260;20.746;2023-04-29T10:25:51;100212.20;;;19.80
69545;BMP180;56766;52.260;20.746;2023-04-29T10:28:22;100215.60;;;19.80
69545;BMP180;56766;52.260;20.746;2023-04-29T10:30:53;100215.80;;;19.80
69545;BMP180;56766;52.260;20.746;2023-04-29T10:33:22;100214.00;;;19.90
69545;BMP180;56766;52.260;20.746;2023-04-29T10:35:50;100208.00;;;20.10
69545;BMP180;56766;52.260;20.746;2023-04-29T10:38:46;100213.80;;;20.10
69545;BMP180;56766;52.260;20.746;2023-04-29T10:41:36;100214.60;;;20.10
69545;BMP180;56766;52.260;20.746;2023-04-29T10:44:07;100210.00;;;20.10
69545;BMP180;56766;52.260;20.746;2023-04-29T10:46:34;100210.60;;;20.10
69545;BMP180;56766;52.260;20.746;2023-04-29T10:49:02;100211.20;;;20.20
69545;BMP180;56766;52.260;20.746;2023-04-29T10:51:38;100202.60;;;20.20
69545;BMP180;56766;52.260;20.746;2023-04-29T10:54:13;100210.20;;;20.22
69545;BMP180;56766;52.260;20.746;2023-04-29T10:56:47;100200.40;;;20.30
69545;BMP180;56766;52.260;20.746;2023-04-29T11:02:09;100200.00;;;20.52
69545;BMP180;56766;52.260;20.746;2023-04-29T11:05:10;100202.60;;;20.44
69545;BMP180;56766;52.260;20.746;2023-04-29T11:07:41;100196.00;;;20.60
69545;BMP180;56766;52.260;20.746;2023-04-29T11:10:09;100194.00;;;20.60
69545;BMP180;56766;52.260;20.746;2023-04-29T11:12:35;100193.00;;;20.40
69545;BMP180;56766;52.260;20.746;2023-04-29T11:15:03;100191.00;;;20.44
69545;BMP180;56766;52.260;20.746;2023-04-29T11:17:36;100195.80;;;20.30
69545;BMP180;56766;52.260;20.746;2023-04-29T11:20:12;100191.80;;;20.00
69545;BMP180;56766;52.260;20.746;2023-04-29T11:22:39;100187.80;;;20.00
69545;BMP180;56766;52.260;20.746;2023-04-29T11:25:09;100180.80;;;20.40
69545;BMP180;56766;52.260;20.746;2023-04-29T11:27:50;100178.80;;;20.88
69545;BMP180;56766;52.260;20.746;2023-04-29T11:30:17;100178.00;;;21.20
69545;BMP180;56766;52.260;20.746;2023-04-29T11:32:44;100176.40;;;20.90
69545;BMP180;56766;52.260;20.746;2023-04-29T11:35:15;100170.40;;;20.70
69545;BMP180;56766;52.260;20.746;2023-04-29T11:37:44;100171.00;;;20.60
69545;BMP180;56766;52.260;20.746;2023-04-29T11:40:13;100164.60;;;20.72
69545;BMP180;56766;52.260;20.746;2023-04-29T11:42:48;100170.40;;;21.10
69545;BMP180;56766;52.260;20.746;2023-04-29T11:45:17;100167.80;;;21.48
69545;BMP180;56766;52.260;20.746;2023-04-29T11:47:46;100169.40;;;21.70
69545;BMP180;56766;52.260;20.746;2023-04-29T11:50:15;100167.00;;;21.50
69545;BMP180;56766;52.260;20.746;2023-04-29T11:52:45;100161.20;;;21.12
69545;BMP180;56766;52.260;20.746;2023-04-29T11:55:12;100160.40;;;21.00
69545;BMP180;56766;52.260;20.746;2023-04-29T11:57:39;100159.60;;;21.42
69545;BMP180;56766;52.260;20.746;2023-04-29T12:00:11;100155.60;;;21.90
69545;BMP180;56766;52.260;20.746;2023-04-29T12:02:38;100154.00;;;22.08
69545;BMP180;56766;52.260;20.746;2023-04-29T12:05:07;100160.20;;;22.00
69545;BMP180;56766;52.260;20.746;2023-04-29T12:07:34;100159.20;;;22.00
69545;BMP180;56766;52.260;20.746;2023-04-29T12:10:01;100156.20;;;21.90
69545;BMP180;56766;52.260;20.746;2023-04-29T12:12:28;100152.60;;;21.90
69545;BMP180;56766;52.260;20.746;2023-04-29T12:14:56;100160.80;;;21.98
69545;BMP180;56766;52.260;20.746;2023-04-29T12:17:23;100155.20;;;22.30
69545;BMP180;56766;52.260;20.746;2023-04-29T12:19:50;100153.40;;;22.70
69545;BMP180;56766;52.260;20.746;2023-04-29T12:22:18;100148.60;;;23.10
69545;BMP180;56766;52.260;20.746;2023-04-29T12:24:44;100149.80;;;23.30
69545;BMP180;56766;52.260;20.746;2023-04-29T12:27:10;100147.00;;;23.14
69545;BMP180;56766;52.260;20.746;2023-04-29T12:29:38;100150.00;;;23.10
69545;BMP180;56766;52.260;20.746;2023-04-29T12:32:16;100145.80;;;23.20
69545;BMP180;56766;52.260;20.746;2023-04-29T12:34:45;100144.60;;;23.40
69545;BMP180;56766;52.260;20.746;2023-04-29T12:37:14;100147.60;;;23.62
69545;BMP180;56766;52.260;20.746;2023-04-29T12:39:40;100143.00;;;23.60
69545;BMP180;56766;52.260;20.746;2023-04-29T12:42:14;100144.40;;;23.40
69545;BMP180;56766;52.260;20.746;2023-04-29T12:44:45;100142.20;;;23.40
69545;BMP180;56766;52.260;20.746;2023-04-29T12:47:15;100142.40;;;23.50
69545;BMP180;56766;52.260;20.746;2023-04-29T12:49:45;100138.20;;;23.60
69545;BMP180;56766;52.260;20.746;2023-04-29T12:52:12;100140.40;;;23.60
69545;BMP180;56766;52.260;20.746;2023-04-29T12:54:39;100137.00;;;23.50
69545;BMP180;56766;52.260;20.746;2023-04-29T12:57:10;100138.80;;;23.50
69545;BMP180;56766;52.260;20.746;2023-04-29T12:59:36;100135.80;;;23.50
69545;BMP180;56766;52.260;20.746;2023-04-29T13:02:03;100140.20;;;23.50
69545;BMP180;56766;52.260;20.746;2023-04-29T13:04:29;100135.60;;;23.40
69545;BMP180;56766;52.260;20.746;2023-04-29T13:06:56;100131.20;;;23.20
69545;BMP180;56766;52.260;20.746;2023-04-29T13:09:26;100124.20;;;22.80
69545;BMP180;56766;52.260;20.746;2023-04-29T13:11:52;100127.20;;;22.40
69545;BMP180;56766;52.260;20.746;2023-04-29T13:14:18;100125.00;;;22.02
69545;BMP180;56766;52.260;20.746;2023-04-29T13:16:44;100123.60;;;21.70
69545;BMP180;56766;52.260;20.746;2023-04-29T13:19:11;100123.80;;;21.38
69545;BMP180;56766;52.260;20.746;2023-04-29T13:21:37;100126.40;;;21.20
69545;BMP180;56766;52.260;20.746;2023-04-29T13:24:04;100127.00;;;21.10
69545;BMP180;56766;52.260;20.746;2023-04-29T13:26:30;100126.60;;;21.10
69545;BMP180;56766;52.260;20.746;2023-04-29T13:28:56;100119.60;;;21.00
69545;BMP180;56766;52.260;20.746;2023-04-29T13:31:22;100123.40;;;21.00
69545;BMP180;56766;52.260;20.746;2023-04-29T13:33:48;100113.60;;;21.10
69545;BMP180;56766;52.260;20.746;2023-04-29T13:36:15;100120.00;;;21.30
69545;BMP180;56766;52.260;20.746;2023-04-29T13:38:41;100113.80;;;21.60
69545;BMP180;56766;52.260;20.746;2023-04-29T13:41:08;100119.40;;;21.60
69545;BMP180;56766;52.260;20.746;2023-04-29T13:43:34;100120.00;;;21.50
69545;BMP180;56766;52.260;20.746;2023-04-29T13:46:01;100113.40;;;21.40
69545;BMP180;56766;52.260;20.746;2023-04-29T13:48:27;100116.20;;;21.30
69545;BMP180;56766;52.260;20.746;2023-04-29T13:50:53;100120.20;;;21.30
69545;BMP180;56766;52.260;20.746;2023-04-29T13:53:20;100123.00;;;21.30
69545;BMP180;56766;52.260;20.746;2023-04-29T13:55:46;100122.60;;;21.30
69545;BMP180;56766;52.260;20.746;2023-04-29T13:58:12;100118.80;;;21.30
69545;BMP180;56766;52.260;20.746;2023-04-29T14:00:38;100116.20;;;21.38
69545;BMP180;56766;52.260;20.746;2023-04-29T14:03:05;100112.20;;;21.24
69545;BMP180;56766;52.260;20.746;2023-04-29T14:05:33;100114.00;;;21.00
69545;BMP180;56766;52.260;20.746;2023-04-29T14:07:59;100115.20;;;20.80
69545;BMP180;56766;52.260;20.746;2023-04-29T14:10:25;100111.00;;;20.62
69545;BMP180;56766;52.260;20.746;2023-04-29T14:12:51;100112.80;;;20.50
69545;BMP180;56766;52.260;20.746;2023-04-29T14:15:18;100114.60;;;20.50
69545;BMP180;56766;52.260;20.746;2023-04-29T14:17:44;100110.80;;;20.40
69545;BMP180;56766;52.260;20.746;2023-04-29T14:20:11;100112.80;;;20.40
69545;BMP180;56766;52.260;20.746;2023-04-29T14:22:38;100112.60;;;20.40